ADDS METAR Data INFO
IDs: Format: Raw Decoded Include TAF

Data at: 0840 UTC 27 Jun 2017

KBPT 270753Z AUTO BKN110 A2999 RMK AO2 SLP157
KBPT 270653Z AUTO CLR A3000 RMK AO2 SLP160
KBPT 270553Z AUTO FEW029 FEW035 A3002 RMK AO2 SLP167
KBPT 270453Z AUTO CLR A3003 RMK AO2 SLP170
KBPT 270353Z CLR A3003 RMK AO2 SLP170 $
KBPT 270300Z CLR A3000 RMK AO2 $
KBPT 270253Z BKN016 OVC100 A3000 RMK AO2 SLP160 58001 $
KBPT 270153Z 12011KT 10SM BKN016 OVC100 25/22 A3002 RMK AO2 SLP164 T02500222 $
KBPT 270151Z 12011KT 10SM BKN016 OVC100 25/22 A3002 RMK AO2 $
KBPT 270143Z BKN014 BKN029 OVC100 A3002 RMK AO2 $
KBPT 270053Z 08006KT 10SM FEW035 SCT045 26/22 A3001 RMK AO2 SLP161 T02610222 $
KBPT 262353Z 03006KT 8SM SCT120 27/22 A3000 RMK AO2 SLP159 6//// T02720222 58004 $
KBPT 262253Z 06012KT 10SM FEW070 SCT095 OVC110 27/23 A3000 RMK AO2 LTG DSNT E RAB22E47 SLP160 T02720228 $
KBPT 262153Z AUTO 10007KT 10SM BKN030 BKN035 BKN100 28/23 A3002 RMK AO2 LTG DSNT NW SLP165 T02780228 $
KBPT 262056Z 04008KT 10SM SCT065 28/22 A3001 RMK AO2 LTG DSNT N T02780222
KBPT 262053Z COR A3001 RMK AO2 LTG DSNT N TSB1957E12 SLP163 6////
KBPT 262018Z AUTO A3002 RMK AO2 LTG DSNT N TSB1957E12
KBPT 261957Z AUTO TS A3003 RMK AO2 LTG DSNT N AND NE TSB57 RVRNO $
KBPT 261853Z A3005 RMK AO2 LTG DSNT NE SLP177 $
KBPT 261753Z COR 0805KT 10SM SCT029 BKN075 BKN090 30/23 A3008 RMK AO2 SLP184 $
KBPT 261653Z A3009 RMK AO2 SLP190 $
KBPT 261553Z 07006KT 10SM SCT055 27/23 A3010 RMK AO2 SLP192 T02720228 $
KBPT 261453Z 08006KT 10SM SCT055 25/22 A3011 RMK AO2 SLP195 T02500222 53004 $
KBPT 261353Z 07006KT 10SM SCT050 24/21 A3010 RMK AO2 SLP193 T02390211 $
KBPT 261253Z 03004KT 10SM BKN050 23/21 A3009 RMK AO2 SLP190 T02280211 $
KBPT 261153Z COR 03004KT 10SM BKN050 23/21 A3009 RMK AO2 SLP190 7//// 50003 $
KBPT 261053Z COR 05006KT 10SM SCT030 23/21 A3010 RMK AO2 SLP194 $
KBPT 260953Z AUTO A3008 RMK AO2 SLP187 PWINO $
KBPT 260853Z AUTO A3008 RMK AO2 SLP187 PWINO $
KBPT 260753Z AUTO A3009 RMK AO2 SLP190 PWINO $
KBPT 260653Z AUTO A3009 RMK AO2 SLP190 PWINO $
KBPT 260553Z AUTO A3011 RMK AO2 SLP197 6//// PWINO $
KBPT 260453Z AUTO A3012 RMK AO2 SLP201 PWINO $
KBPT 260353Z AUTO VCTS A3014 RMK AO2 TSE43 SLP207 PWINO PNO
KBPT 260349Z AUTO VCTS A3014 RMK AO2 TSE43 PWINO PNO
KBPT 260256Z AUTO R12/4000VP6000FT TS 23/ A3014 RMK AO2 LTG DSNT E T0233 PWINO PNO $
KBPT 260248Z AUTO 1 1/2SM R12/4500VP6000FT TS BR 23/ A3014 RMK AO2 LTG DSNT NE-SE RAE11B22RAEMM TSE08B15 SLP207 P0009 60056 T0233 53029 PWINO $
KBPT 260247Z AUTO 1 1/2SM R12/4000VP6000FT TS BR 23/ A3014 RMK AO2 LTG DSNT NE-SE RAE11B22RAEMM TSE08B15 P0009 PWINO $
KBPT 260231Z 1/2SM R12/2200V2800FT +TSRA 23/ A3012 RMK AO2 LTG DSNT ALQDS RAE11B22 TSE08B15 P0009 T0233 $
KBPT 260221Z 21011G17KT 5SM TS BR OVC004 23/22 A3012 RMK AO2 LTG DSNT E AND SE AND W RAE11 TSE08B15 PRESRR P0001 T02280222 $
KBPT 260214Z 21011G17KT 5SM BR OVC004 23/22 A3011 RMK AO2 LTG DSNT SE AND W RAE11 TSE08 P0001 T02280222 $
KBPT 260153Z 19010G28KT 5SM -TSRA BR OVC004 23/23 A3010 RMK AO2 LTG DSNT SE-SW RAB10 TSB00 SLP191 P0047 T02330228 $
KBPT 260138Z 14018G28KT 5SM +TSRA BR OVC005 23/23 A3010 RMK AO2 LTG DSNT S AND SW RAB10 TSB00 P0039 T02330228 $
KBPT 260127Z 2SM R12/5500VP6000FT +TSRA BR 23/23 A3009 RMK AO2 LTG DSNT SW RAB10 TSB00 P0032 T02330233 $
KBPT 260116Z 1SM R12/3500VP6000FT +TSRA BR 24/24 A3009 RMK AO2 LTG DSNT SW RAB10 TSB00 P0009 T02440239 $
KBPT 260114Z 1 3/4SM R12/3500VP6000FT +TSRA BR FEW015 BKN021 OVC028 25/24 A3009 RMK AO2 LTG DSNT E AND SW RAB10 TSB00 P0001 T02500239 $
KBPT 260106Z 13008KT 10SM TS SCT022 BKN028 27/23 A3009 RMK AO2 LTG DSNT E AND SW TSB00 T02720233
KBPT 260053Z COR 01006KT 10SM VCTS BKN020 BKN025 28/24 A3007 RMK AO2 LTG DSNT NE AND E AND SW SLP183 T02830239
KBPT 260048Z 01006KT 10SM VCTS BKN025 28/24 A3007 RMK AO2 LTG DSNT NE AND E AND SW SLP183 T02830239
KBPT 260047Z 01006KT 10SM VCTS BKN025 28/24 A3007 RMK AO2 LTG DSNT ALQDS
KBPT 252353Z 02009KT 10SM FEW035 29/23 A3006 RMK AO2 LTG DSNT E AND SE SLP177 T02940233 10306 20239 $
KBPT 252253Z 03010KT 10SM FEW024 31/24 A3006 RMK AO2 LTG DSNT E SLP178 T03060244 $
KBPT 252153Z 02007KT 10SM BKN035 30/24 A3007 RMK AO2 SLP182 T03000239 $
KBPT 252053Z 03006KT 10SM SCT025 29/25 A3008 RMK AO2 SLP187 T02890250 56022 $


Page loaded:  08:40 UTC  |   01:40 AM Pacific  |   02:40 AM Mountain  |   03:40 AM Central  |   04:40 AM Eastern

 

ADVISORIES

FORECASTS

FORECASTS

OBSERVATIONS

USER TOOLS

ABOUT US